Terminal Aerodrome Forecast
Issued by NWS Northern Indiana

Home | Current Version | Previous Version | Graphics & Text | Print | Product List | Glossary On
Versions: 1 2 3 4 5 6 7 8 9 10 11 12 13 14 15 16 17 18
549
FTUS43 KIWX 291502 AAA
TAFFWA
TAF AMD
KFWA 291502Z 2915/3012 03004KT P6SM OVC012
      TEMPO 2915/2917 4SM -DZ BR BKN005
     FM292000 04005KT P6SM BKN020
     FM292300 06006KT P6SM BKN050=

USA.gov is the U.S. government's official web portal to all federal, state and local government web resources and services.